createdAt,value
2023-05-14T00:00:58.881Z,58.80
2023-05-14T00:03:26.798Z,58.90
2023-05-14T00:05:54.599Z,58.90
2023-05-14T00:08:22.374Z,58.90
2023-05-14T00:10:50.156Z,59.10
2023-05-14T00:13:18.060Z,59.10
2023-05-14T00:15:47.203Z,59.10
2023-05-14T00:18:14.992Z,59.20
2023-05-14T00:20:42.767Z,59.20
2023-05-14T00:23:10.639Z,59.10
2023-05-14T00:25:38.753Z,59.20
2023-05-14T00:28:06.566Z,59.20
2023-05-14T00:30:34.868Z,59.10
2023-05-14T00:33:04.638Z,59.10
2023-05-14T00:35:35.148Z,59.10
2023-05-14T00:38:03.325Z,59.10
2023-05-14T00:40:31.310Z,59.10
2023-05-14T00:42:59.145Z,59.10
2023-05-14T00:45:27.047Z,59.00
2023-05-14T00:47:54.944Z,59.00
2023-05-14T00:50:24.589Z,59.10
2023-05-14T00:52:52.556Z,59.10
2023-05-14T00:55:20.754Z,59.10
2023-05-14T00:57:48.652Z,59.20
2023-05-14T01:00:17.216Z,59.10
2023-05-14T01:02:45.003Z,59.30
2023-05-14T01:05:13.004Z,59.30
2023-05-14T01:07:49.982Z,59.40
2023-05-14T01:10:25.981Z,59.40
2023-05-14T01:13:05.100Z,59.40
2023-05-14T01:15:35.676Z,59.50
2023-05-14T01:18:06.359Z,59.50
2023-05-14T01:20:34.254Z,59.50
2023-05-14T01:23:03.516Z,59.50
2023-05-14T01:25:32.172Z,59.50
2023-05-14T01:28:07.404Z,59.50
2023-05-14T01:30:37.417Z,59.40
2023-05-14T01:33:11.560Z,59.50
2023-05-14T01:35:40.265Z,59.30
2023-05-14T01:38:13.185Z,59.30
2023-05-14T01:40:41.699Z,59.20
2023-05-14T01:43:10.085Z,59.30
2023-05-14T01:45:38.470Z,59.20
2023-05-14T01:48:07.021Z,59.20
2023-05-14T01:50:35.227Z,59.20
2023-05-14T01:53:03.123Z,59.30
2023-05-14T01:55:32.223Z,59.30
2023-05-14T01:57:59.966Z,59.30
2023-05-14T02:00:28.160Z,59.30
2023-05-14T02:02:55.952Z,59.40
2023-05-14T02:05:23.982Z,59.50
2023-05-14T02:07:51.797Z,59.50
2023-05-14T02:10:19.753Z,59.50
2023-05-14T02:12:48.864Z,59.30
2023-05-14T02:15:16.800Z,59.20
2023-05-14T02:17:44.584Z,59.10
2023-05-14T02:20:13.343Z,59.00
2023-05-14T02:22:42.342Z,59.00
2023-05-14T02:25:11.281Z,58.90
2023-05-14T02:27:39.048Z,59.00
2023-05-14T02:30:09.996Z,59.00
2023-05-14T02:32:38.378Z,59.00
2023-05-14T02:35:07.284Z,59.10
2023-05-14T02:37:35.658Z,59.10
2023-05-14T02:40:04.361Z,59.20
2023-05-14T02:42:32.838Z,59.20
2023-05-14T02:45:00.705Z,59.20
2023-05-14T02:47:30.033Z,59.30
2023-05-14T02:49:57.902Z,59.20
2023-05-14T02:52:25.708Z,59.90
2023-05-14T02:54:54.279Z,59.30
2023-05-14T02:57:22.103Z,59.30
2023-05-14T02:59:49.809Z,59.30
2023-05-14T03:02:18.225Z,59.30
2023-05-14T03:04:48.215Z,59.30
2023-05-14T03:07:15.930Z,59.40
2023-05-14T03:09:43.720Z,59.50
2023-05-14T03:12:12.690Z,59.50
2023-05-14T03:14:40.468Z,59.50
2023-05-14T03:17:08.327Z,59.40
2023-05-14T03:19:36.146Z,59.40
2023-05-14T03:22:05.912Z,59.40
2023-05-14T03:24:33.876Z,59.40
2023-05-14T03:27:01.680Z,59.40
2023-05-14T03:29:29.526Z,59.40
2023-05-14T03:31:57.339Z,59.30
2023-05-14T03:34:25.209Z,59.30
2023-05-14T03:36:52.949Z,59.30
2023-05-14T03:39:22.035Z,59.30
2023-05-14T03:41:50.042Z,59.50
2023-05-14T03:44:17.811Z,59.50
2023-05-14T03:46:45.584Z,59.50
2023-05-14T03:49:13.287Z,59.50
2023-05-14T03:51:41.039Z,59.40
2023-05-14T03:54:08.923Z,59.40
2023-05-14T03:56:37.976Z,59.40
2023-05-14T03:59:05.799Z,59.30
2023-05-14T04:01:33.609Z,59.30
2023-05-14T04:04:01.465Z,59.30
2023-05-14T04:06:29.378Z,59.30
2023-05-14T04:08:57.181Z,59.30
2023-05-14T04:11:25.047Z,59.40
2023-05-14T04:13:54.119Z,59.40
2023-05-14T04:16:21.884Z,59.40
2023-05-14T04:18:49.795Z,59.40
2023-05-14T04:21:17.646Z,59.50
2023-05-14T04:23:45.385Z,59.50
2023-05-14T04:26:13.142Z,59.50
2023-05-14T04:28:40.938Z,59.50
2023-05-14T04:31:10.066Z,59.50
2023-05-14T04:33:38.020Z,59.50
2023-05-14T04:36:06.516Z,59.50
2023-05-14T04:38:34.507Z,59.40
2023-05-14T04:41:02.278Z,59.50
2023-05-14T04:43:30.043Z,59.40
2023-05-14T04:45:57.794Z,59.40
2023-05-14T04:48:27.032Z,59.40
2023-05-14T04:50:54.879Z,59.40
2023-05-14T04:53:22.635Z,59.40
2023-05-14T04:55:50.453Z,59.30
2023-05-14T04:58:18.265Z,59.30
2023-05-14T05:00:46.161Z,59.40
2023-05-14T05:03:14.031Z,59.30
2023-05-14T05:05:43.175Z,59.30
2023-05-14T05:08:11.600Z,59.20
2023-05-14T05:10:39.328Z,59.20
2023-05-14T05:13:07.047Z,59.20
2023-05-14T05:15:34.767Z,59.20
2023-05-14T05:18:02.761Z,59.30
2023-05-14T05:20:31.042Z,59.30
2023-05-14T05:23:00.461Z,59.30
2023-05-14T05:25:28.350Z,59.30
2023-05-14T05:27:56.103Z,59.20
2023-05-14T05:30:24.031Z,59.20
2023-05-14T05:32:52.170Z,59.30
2023-05-14T05:35:20.017Z,59.30
2023-05-14T05:37:47.764Z,59.30
2023-05-14T05:40:17.428Z,59.30
2023-05-14T05:42:45.236Z,59.20
2023-05-14T05:45:12.985Z,59.20
2023-05-14T05:47:40.884Z,59.20
2023-05-14T05:50:09.868Z,59.10
2023-05-14T05:52:37.742Z,59.10
2023-05-14T05:55:06.786Z,59.00
2023-05-14T05:57:35.870Z,59.20
2023-05-14T06:00:12.744Z,59.20
2023-05-14T06:02:40.780Z,59.20
2023-05-14T06:05:10.205Z,59.20
2023-05-14T06:07:37.970Z,59.20
2023-05-14T06:10:06.764Z,59.30
2023-05-14T06:12:35.905Z,59.20
2023-05-14T06:15:03.753Z,59.20
2023-05-14T06:17:31.594Z,59.20
2023-05-14T06:19:59.334Z,59.20
2023-05-14T06:22:27.135Z,59.20
2023-05-14T06:24:54.872Z,59.10
2023-05-14T06:27:22.571Z,59.10
2023-05-14T06:29:51.910Z,59.10
2023-05-14T06:32:19.642Z,59.20
2023-05-14T06:34:47.416Z,59.10
2023-05-14T06:37:15.167Z,59.10
2023-05-14T06:39:48.061Z,59.20
2023-05-14T06:42:15.894Z,59.20
2023-05-14T06:44:43.641Z,59.30
2023-05-14T06:47:12.680Z,59.20
2023-05-14T06:49:40.561Z,59.20
2023-05-14T06:52:09.245Z,59.30
2023-05-14T06:54:36.961Z,59.20
2023-05-14T06:57:05.057Z,59.20
2023-05-14T06:59:33.207Z,59.30
2023-05-14T07:02:01.247Z,59.30
2023-05-14T07:04:30.464Z,59.30
2023-05-14T07:06:58.205Z,59.30
2023-05-14T07:09:25.957Z,59.30
2023-05-14T07:11:53.735Z,59.30
2023-05-14T07:14:21.503Z,59.30
2023-05-14T07:16:49.306Z,59.30
2023-05-14T07:19:17.397Z,59.30
2023-05-14T07:21:46.591Z,59.30
2023-05-14T07:24:14.289Z,59.30
2023-05-14T07:26:43.292Z,59.40
2023-05-14T07:29:11.011Z,59.40
2023-05-14T07:31:38.812Z,59.30
2023-05-14T07:34:07.856Z,59.10
2023-05-14T07:36:35.984Z,59.10
2023-05-14T07:39:06.031Z,59.20
2023-05-14T07:41:33.829Z,59.30
2023-05-14T07:44:01.731Z,59.40
2023-05-14T07:46:29.448Z,59.40
2023-05-14T07:48:57.210Z,59.20
2023-05-14T07:51:28.321Z,59.10
2023-05-14T07:53:56.466Z,59.20
2023-05-14T07:56:25.822Z,59.30
2023-05-14T07:58:53.654Z,59.30
2023-05-14T08:01:21.688Z,59.40
2023-05-14T08:03:49.745Z,59.50
2023-05-14T08:06:17.659Z,59.50
2023-05-14T08:08:45.504Z,59.50
2023-05-14T08:11:21.154Z,59.50
2023-05-14T08:13:54.424Z,59.50
2023-05-14T08:16:22.258Z,59.60
2023-05-14T08:18:50.210Z,59.70
2023-05-14T08:21:17.998Z,59.80
2023-05-14T08:23:45.808Z,59.80
2023-05-14T08:26:13.542Z,59.80
2023-05-14T08:28:41.274Z,59.80
2023-05-14T08:31:10.330Z,59.80
2023-05-14T08:33:38.078Z,59.70
2023-05-14T08:36:07.216Z,59.70
2023-05-14T08:38:34.949Z,59.70
2023-05-14T08:41:02.729Z,59.70
2023-05-14T08:43:38.857Z,59.70
2023-05-14T08:46:07.513Z,59.70
2023-05-14T08:48:37.685Z,59.70
2023-05-14T08:51:05.763Z,59.70
2023-05-14T08:53:33.513Z,59.70
2023-05-14T08:56:02.854Z,59.60
2023-05-14T08:58:30.602Z,59.50
2023-05-14T09:00:58.471Z,59.60
2023-05-14T09:03:26.601Z,59.60
2023-05-14T09:05:57.988Z,59.60
2023-05-14T09:08:27.994Z,59.50
2023-05-14T09:10:55.719Z,59.50
2023-05-14T09:13:23.514Z,59.50
2023-05-14T09:15:52.103Z,59.40
2023-05-14T09:18:19.894Z,59.30
2023-05-14T09:20:48.343Z,59.30
2023-05-14T09:23:17.421Z,59.30
2023-05-14T09:25:45.268Z,59.40
2023-05-14T09:28:13.035Z,59.50
2023-05-14T09:30:41.179Z,59.40
2023-05-14T09:33:10.357Z,59.30
2023-05-14T09:35:41.397Z,59.10
2023-05-14T09:38:09.249Z,59.00
2023-05-14T09:40:38.846Z,59.10
2023-05-14T09:43:06.551Z,59.00
2023-05-14T09:45:36.083Z,59.00
2023-05-14T09:48:04.483Z,59.00
2023-05-14T09:50:32.233Z,58.90
2023-05-14T09:53:00.970Z,59.00
2023-05-14T09:55:29.173Z,58.80
2023-05-14T09:57:58.175Z,58.80
2023-05-14T10:00:26.203Z,58.70
2023-05-14T10:02:56.010Z,58.70
2023-05-14T10:05:24.978Z,58.70
2023-05-14T10:07:55.587Z,58.80
2023-05-14T10:10:27.750Z,59.00
2023-05-14T10:13:04.127Z,59.10
2023-05-14T10:15:36.465Z,59.00
2023-05-14T10:18:08.070Z,59.00
2023-05-14T10:20:37.727Z,58.90
2023-05-14T10:23:07.533Z,58.90
2023-05-14T10:25:35.796Z,59.00
2023-05-14T10:28:05.983Z,59.10
2023-05-14T10:30:33.996Z,59.20
2023-05-14T10:33:09.126Z,59.40
2023-05-14T10:35:56.447Z,59.30
2023-05-14T10:38:27.151Z,59.00
2023-05-14T10:41:03.322Z,59.00
2023-05-14T10:43:37.344Z,58.90
2023-05-14T10:46:05.657Z,59.10
2023-05-14T10:48:34.533Z,59.20
2023-05-14T10:51:02.786Z,59.30
2023-05-14T10:53:35.621Z,59.00
2023-05-14T10:56:05.838Z,58.80
2023-05-14T10:58:37.366Z,58.80
2023-05-14T11:01:06.969Z,58.80
2023-05-14T11:03:40.942Z,58.90
2023-05-14T11:06:09.932Z,58.90
2023-05-14T11:08:38.344Z,59.10
2023-05-14T11:11:06.634Z,59.10
2023-05-14T11:13:36.278Z,59.30
2023-05-14T11:16:15.640Z,59.30
2023-05-14T11:18:54.706Z,59.90
2023-05-14T11:21:22.750Z,59.40
2023-05-14T11:23:50.930Z,59.50
2023-05-14T11:26:21.367Z,59.60
2023-05-14T11:28:50.892Z,59.70
2023-05-14T11:31:18.948Z,59.90
2023-05-14T11:33:47.123Z,60.10
2023-05-14T11:36:15.123Z,60.10
2023-05-14T11:38:49.590Z,60.10
2023-05-14T11:41:17.316Z,60.10
2023-05-14T11:43:45.162Z,60.10
2023-05-14T11:46:19.386Z,59.90
2023-05-14T11:48:47.474Z,60.00
2023-05-14T11:51:15.276Z,60.00
2023-05-14T11:53:43.271Z,60.00
2023-05-14T11:56:11.346Z,60.00
2023-05-14T11:58:39.425Z,60.00
2023-05-14T12:01:07.246Z,59.90
2023-05-14T12:03:36.893Z,60.00
2023-05-14T12:06:08.234Z,59.90
2023-05-14T12:08:36.216Z,59.90
2023-05-14T12:11:04.535Z,59.70
2023-05-14T12:13:32.904Z,59.70
2023-05-14T12:16:02.452Z,59.50
2023-05-14T12:18:31.731Z,59.30
2023-05-14T12:21:07.885Z,59.00
2023-05-14T12:23:35.741Z,58.90
2023-05-14T12:26:05.962Z,58.90
2023-05-14T12:28:37.580Z,58.80
2023-05-14T12:31:05.929Z,58.70
2023-05-14T12:33:33.884Z,58.70
2023-05-14T12:36:19.828Z,58.70
2023-05-14T12:38:51.401Z,58.70
2023-05-14T12:41:19.234Z,58.80
2023-05-14T12:43:49.549Z,58.70
2023-05-14T12:46:17.435Z,58.50
2023-05-14T12:48:45.200Z,58.50
2023-05-14T12:51:13.056Z,58.50
2023-05-14T12:53:41.344Z,58.50
2023-05-14T12:56:10.761Z,58.50
2023-05-14T12:58:38.688Z,58.50
2023-05-14T13:01:06.921Z,58.30
2023-05-14T13:03:34.758Z,58.30
2023-05-14T13:06:02.734Z,58.30
2023-05-14T13:08:30.924Z,58.30
2023-05-14T13:10:58.634Z,58.40
2023-05-14T13:13:27.851Z,58.50
2023-05-14T13:15:55.589Z,58.30
2023-05-14T13:18:23.282Z,58.50
2023-05-14T13:20:51.758Z,58.50
2023-05-14T13:23:19.591Z,58.60
2023-05-14T13:25:49.701Z,58.60
2023-05-14T13:28:17.713Z,58.60
2023-05-14T13:31:05.821Z,58.50
2023-05-14T13:33:34.518Z,58.50
2023-05-14T13:36:02.362Z,58.30
2023-05-14T13:38:30.370Z,58.30
2023-05-14T13:41:02.083Z,58.30
2023-05-14T13:43:30.702Z,58.20
2023-05-14T13:46:00.055Z,58.20
2023-05-14T13:48:28.392Z,58.20
2023-05-14T13:50:56.103Z,58.20
2023-05-14T13:53:24.952Z,58.10
2023-05-14T13:55:56.264Z,58.10
2023-05-14T13:58:25.177Z,57.80
2023-05-14T14:00:53.435Z,57.70
2023-05-14T14:03:22.521Z,57.40
2023-05-14T14:05:51.595Z,57.40
2023-05-14T14:08:23.939Z,57.40
2023-05-14T14:10:53.746Z,57.50
2023-05-14T14:13:22.613Z,57.60
2023-05-14T14:15:50.620Z,57.50
2023-05-14T14:18:18.375Z,57.40
2023-05-14T14:20:47.516Z,57.50
2023-05-14T14:23:15.354Z,57.40
2023-05-14T14:25:43.493Z,57.30
2023-05-14T14:28:11.248Z,57.20
2023-05-14T14:30:39.039Z,57.20
2023-05-14T14:33:07.092Z,57.10
2023-05-14T14:35:35.677Z,57.00
2023-05-14T14:38:04.800Z,56.90
2023-05-14T14:40:34.012Z,56.90
2023-05-14T14:43:01.999Z,56.90
2023-05-14T14:45:29.793Z,56.70
2023-05-14T14:48:25.867Z,56.80
2023-05-14T14:50:54.138Z,56.80
2023-05-14T14:53:24.175Z,56.80
2023-05-14T14:55:52.741Z,56.70
2023-05-14T14:58:21.234Z,56.70
2023-05-14T15:00:49.593Z,56.70
2023-05-14T15:03:18.623Z,56.60
2023-05-14T15:05:46.980Z,56.60
2023-05-14T15:08:14.901Z,56.60
2023-05-14T15:10:45.038Z,56.60
2023-05-14T15:13:13.371Z,56.60
2023-05-14T15:15:41.109Z,56.60
2023-05-14T15:18:09.101Z,56.50
2023-05-14T15:20:36.888Z,56.40
2023-05-14T15:23:04.679Z,56.40
2023-05-14T15:25:32.413Z,56.50
2023-05-14T15:28:01.551Z,56.30
2023-05-14T15:30:29.461Z,56.40
2023-05-14T15:32:57.437Z,56.10
2023-05-14T15:35:25.535Z,56.30
2023-05-14T15:37:56.809Z,56.20
2023-05-14T15:40:24.808Z,56.00
2023-05-14T15:42:52.651Z,56.00
2023-05-14T15:45:21.922Z,56.00
2023-05-14T15:47:49.720Z,56.00
2023-05-14T15:50:17.441Z,56.00
2023-05-14T15:52:45.140Z,56.00
2023-05-14T15:55:12.906Z,56.00
2023-05-14T15:57:40.677Z,55.90
2023-05-14T16:00:10.960Z,55.90
2023-05-14T16:02:40.709Z,56.00
2023-05-14T16:05:09.273Z,55.90
2023-05-14T16:07:37.823Z,56.00
2023-05-14T16:10:06.542Z,56.00
2023-05-14T16:12:34.438Z,56.00
2023-05-14T16:15:02.126Z,56.10
2023-05-14T16:17:31.776Z,56.00
2023-05-14T16:20:01.821Z,56.20
2023-05-14T16:22:32.141Z,56.20
2023-05-14T16:25:03.107Z,56.10
2023-05-14T16:27:31.477Z,56.10
2023-05-14T16:29:59.343Z,56.20
2023-05-14T16:32:27.696Z,56.10
2023-05-14T16:34:56.447Z,56.10
2023-05-14T16:37:29.137Z,56.20
2023-05-14T16:39:59.340Z,56.20
2023-05-14T16:42:29.407Z,56.20
2023-05-14T16:44:58.857Z,56.20
2023-05-14T16:47:27.072Z,56.20
2023-05-14T16:49:54.846Z,56.20
2023-05-14T16:52:23.625Z,56.30
2023-05-14T16:54:52.957Z,56.40
2023-05-14T16:57:21.060Z,56.40
2023-05-14T16:59:48.832Z,56.30
2023-05-14T17:02:19.116Z,56.20
2023-05-14T17:04:47.293Z,56.30
2023-05-14T17:07:15.465Z,56.30
2023-05-14T17:09:45.694Z,56.20
2023-05-14T17:12:16.286Z,56.70
2023-05-14T17:14:44.538Z,56.20
2023-05-14T17:17:12.835Z,56.20
2023-05-14T17:19:41.284Z,56.20
2023-05-14T17:22:09.115Z,56.20
2023-05-14T17:24:38.923Z,56.70
2023-05-14T17:27:07.934Z,56.30
2023-05-14T17:29:37.012Z,56.20
2023-05-14T17:32:06.761Z,56.20
2023-05-14T17:34:34.797Z,56.20
2023-05-14T17:37:02.574Z,56.20
2023-05-14T17:39:30.542Z,56.20
2023-05-14T17:41:58.576Z,56.10
2023-05-14T17:44:26.628Z,56.10
2023-05-14T17:47:00.394Z,55.80
2023-05-14T17:49:30.573Z,55.70
2023-05-14T17:51:59.014Z,55.80
2023-05-14T17:54:29.388Z,55.90
2023-05-14T17:56:57.730Z,56.00
2023-05-14T17:59:25.656Z,56.10
2023-05-14T18:01:54.798Z,56.20
2023-05-14T18:04:22.972Z,56.30
2023-05-14T18:06:50.927Z,56.20
2023-05-14T18:09:18.669Z,56.20
2023-05-14T18:11:46.502Z,56.30
2023-05-14T18:14:14.550Z,56.20
2023-05-14T18:16:42.463Z,56.40
2023-05-14T18:19:12.355Z,56.30
2023-05-14T18:21:40.071Z,56.40
2023-05-14T18:24:08.743Z,56.40
2023-05-14T18:26:36.605Z,56.50
2023-05-14T18:29:04.594Z,56.50
2023-05-14T18:31:32.676Z,56.40
2023-05-14T18:34:00.854Z,56.30
2023-05-14T18:36:30.015Z,56.30
2023-05-14T18:38:58.022Z,56.30
2023-05-14T18:41:26.089Z,56.30
2023-05-14T18:43:53.889Z,56.40
2023-05-14T18:46:22.907Z,56.40
2023-05-14T18:48:51.168Z,56.40
2023-05-14T18:51:19.447Z,56.40
2023-05-14T18:53:48.831Z,56.40
2023-05-14T18:56:16.735Z,56.40
2023-05-14T18:58:47.620Z,56.50
2023-05-14T19:01:15.343Z,56.50
2023-05-14T19:03:43.215Z,56.50
2023-05-14T19:06:11.057Z,56.50
2023-05-14T19:08:41.679Z,56.50
2023-05-14T19:11:11.156Z,56.50
2023-05-14T19:13:38.898Z,56.60
2023-05-14T19:16:07.867Z,56.70
2023-05-14T19:18:36.746Z,56.70
2023-05-14T19:21:04.960Z,56.60
2023-05-14T19:23:35.227Z,56.60
2023-05-14T19:26:03.746Z,56.70
2023-05-14T19:28:34.400Z,56.60
2023-05-14T19:31:02.085Z,56.60
2023-05-14T19:33:29.830Z,56.70
2023-05-14T19:35:58.021Z,56.70
2023-05-14T19:38:25.957Z,56.70
2023-05-14T19:40:57.092Z,56.70
2023-05-14T19:43:27.943Z,56.70
2023-05-14T19:45:57.772Z,56.70
2023-05-14T19:48:26.152Z,56.70
2023-05-14T19:50:53.810Z,56.80
2023-05-14T19:53:21.723Z,56.90
2023-05-14T19:55:49.479Z,56.90
2023-05-14T19:58:17.149Z,56.80
2023-05-14T20:00:47.258Z,56.90
2023-05-14T20:03:16.376Z,56.90
2023-05-14T20:05:45.873Z,57.00
2023-05-14T20:08:13.659Z,56.90
2023-05-14T20:10:41.470Z,57.00
2023-05-14T20:13:09.286Z,57.00
2023-05-14T20:15:37.037Z,57.10
2023-05-14T20:18:04.959Z,57.10
2023-05-14T20:20:34.319Z,57.10
2023-05-14T20:23:02.322Z,57.10
2023-05-14T20:25:30.343Z,57.20
2023-05-14T20:28:00.105Z,57.20
2023-05-14T20:30:27.992Z,57.30
2023-05-14T20:32:55.763Z,57.30
2023-05-14T20:35:23.790Z,57.30
2023-05-14T20:37:54.381Z,57.40
2023-05-14T20:40:22.300Z,57.40
2023-05-14T20:42:51.255Z,57.50
2023-05-14T20:45:19.062Z,57.30
2023-05-14T20:47:47.791Z,57.30
2023-05-14T20:50:15.584Z,57.30
2023-05-14T20:52:43.563Z,57.20
2023-05-14T20:55:13.234Z,57.20
2023-05-14T20:57:40.974Z,57.20
2023-05-14T21:00:12.471Z,57.10
2023-05-14T21:02:40.387Z,57.20
2023-05-14T21:05:08.546Z,57.10
2023-05-14T21:07:37.301Z,57.10
2023-05-14T21:10:05.535Z,57.00
2023-05-14T21:12:34.578Z,57.10
2023-05-14T21:15:02.385Z,57.00
2023-05-14T21:17:30.478Z,57.10
2023-05-14T21:19:58.282Z,57.10
2023-05-14T21:22:26.265Z,57.10
2023-05-14T21:24:55.508Z,57.10
2023-05-14T21:27:23.455Z,57.10
2023-05-14T21:29:52.616Z,57.10
2023-05-14T21:32:22.152Z,57.20
2023-05-14T21:34:50.049Z,57.40
2023-05-14T21:37:17.841Z,57.40
2023-05-14T21:39:45.639Z,57.30
2023-05-14T21:42:13.336Z,57.30
2023-05-14T21:44:41.276Z,57.30
2023-05-14T21:47:10.360Z,57.20
2023-05-14T21:49:38.072Z,57.20
2023-05-14T21:52:06.442Z,57.20
2023-05-14T21:54:34.245Z,57.10
2023-05-14T21:57:02.604Z,57.10
2023-05-14T21:59:30.387Z,57.10
2023-05-14T22:02:06.848Z,57.10
2023-05-14T22:04:36.638Z,57.10
2023-05-14T22:07:04.905Z,57.00
2023-05-14T22:09:32.685Z,56.90
2023-05-14T22:12:00.475Z,56.90
2023-05-14T22:14:28.179Z,56.90
2023-05-14T22:16:56.076Z,57.00
2023-05-14T22:19:24.077Z,57.80
2023-05-14T22:21:53.373Z,57.30
2023-05-14T22:24:21.407Z,57.20
2023-05-14T22:26:49.404Z,57.10
2023-05-14T22:29:17.166Z,57.30
2023-05-14T22:31:44.856Z,57.50
2023-05-14T22:34:12.577Z,57.60
2023-05-14T22:36:40.329Z,57.60
2023-05-14T22:39:11.336Z,57.60
2023-05-14T22:41:40.470Z,57.60
2023-05-14T22:44:08.458Z,57.60
2023-05-14T22:46:36.405Z,57.60
2023-05-14T22:49:04.170Z,57.40
2023-05-14T22:51:31.855Z,57.70
2023-05-14T22:53:59.864Z,57.80
2023-05-14T22:56:29.128Z,57.70
2023-05-14T22:58:56.890Z,57.80
2023-05-14T23:01:24.681Z,57.80
2023-05-14T23:03:52.453Z,57.80
2023-05-14T23:06:20.439Z,57.80
2023-05-14T23:08:48.339Z,57.90
2023-05-14T23:11:16.234Z,57.80
2023-05-14T23:13:45.554Z,57.90
2023-05-14T23:16:13.300Z,57.80
2023-05-14T23:18:41.537Z,57.90
2023-05-14T23:21:09.367Z,57.90
2023-05-14T23:23:37.094Z,57.90
2023-05-14T23:26:05.278Z,58.00
2023-05-14T23:28:33.089Z,57.90
2023-05-14T23:31:02.367Z,57.90
2023-05-14T23:33:30.071Z,57.90
2023-05-14T23:35:57.872Z,57.90
2023-05-14T23:38:25.787Z,57.80
2023-05-14T23:40:53.610Z,57.90
2023-05-14T23:43:21.416Z,57.90
2023-05-14T23:45:49.151Z,57.90
2023-05-14T23:48:19.317Z,57.90
2023-05-14T23:50:47.099Z,57.90
2023-05-14T23:53:14.794Z,57.90
2023-05-14T23:55:42.621Z,57.90
2023-05-14T23:58:10.375Z,57.90
